Time;durP1;ratioP1;P1;durP2;ratioP2;P2;SDS_P1;SDS_P2;PMS_P1;PMS_P2;Temp;Humidity;BMP_temperature;BMP_pressure;BME280_temperature;BME280_humidity;BME280_pressure;Samples;Min_cycle;Max_cycle;Signal;HPM_P1;HPM_P2
2023/10/29 00:01:53;;;;;;;2.67;1.00;;;10.30;99.90;;;;;;5015035;28;20046;-64
2023/10/29 00:04:25;;;;;;;3.35;1.25;;;10.30;99.90;;;;;;5029444;28;20042;-64
2023/10/29 00:06:57;;;;;;;2.45;1.42;;;10.30;99.90;;;;;;5016229;28;20042;-64
2023/10/29 00:09:29;;;;;;;2.15;0.98;;;10.20;99.90;;;;;;5017155;28;20048;-64
2023/10/29 00:12:01;;;;;;;5.28;1.25;;;10.20;99.90;;;;;;5030072;28;20037;-64
2023/10/29 00:14:27;;;;;;;3.72;1.20;;;10.20;99.90;;;;;;5026463;28;20116;-64
2023/10/29 00:16:59;;;;;;;3.83;1.23;;;10.20;99.90;;;;;;5022203;28;20073;-64
2023/10/29 00:19:32;;;;;;;3.95;1.02;;;10.20;99.90;;;;;;5019938;28;20179;-64
2023/10/29 00:22:03;;;;;;;2.83;1.20;;;10.20;99.90;;;;;;5021389;28;20041;-64
2023/10/29 00:24:35;;;;;;;3.78;1.92;;;10.20;99.90;;;;;;5040972;28;20034;-64
2023/10/29 00:27:07;;;;;;;5.43;1.23;;;10.20;99.90;;;;;;5015569;28;20129;-64
2023/10/29 00:29:41;;;;;;;1.67;1.00;;;10.30;99.90;;;;;;5028232;28;20053;-64
2023/10/29 00:32:14;;;;;;;4.25;1.25;;;10.30;99.90;;;;;;5028653;28;20096;-64
2023/10/29 00:34:46;;;;;;;4.35;0.95;;;10.30;99.90;;;;;;5027121;28;20050;-64
2023/10/29 00:37:18;;;;;;;2.33;0.90;;;10.40;99.90;;;;;;5014405;28;20050;-64
2023/10/29 00:39:50;;;;;;;3.47;1.30;;;10.30;99.90;;;;;;5023310;28;20054;-64
2023/10/29 00:42:23;;;;;;;2.85;1.00;;;10.30;99.90;;;;;;5014242;28;20561;-64
2023/10/29 00:44:55;;;;;;;;;;;10.30;99.90;;;;;;5029369;28;20034;-64
2023/10/29 00:47:27;;;;;;;4.47;1.30;;;10.20;99.90;;;;;;5021905;28;19928;-64
2023/10/29 00:49:59;;;;;;;2.67;1.30;;;10.20;99.90;;;;;;5030405;28;20108;-64
2023/10/29 00:52:32;;;;;;;2.58;1.33;;;10.20;99.90;;;;;;5030490;28;20037;-64
2023/10/29 00:55:04;;;;;;;3.95;1.50;;;10.20;99.90;;;;;;5014648;28;20533;-64
2023/10/29 00:57:37;;;;;;;5.55;1.27;;;10.10;99.90;;;;;;5028393;28;20577;-64
2023/10/29 01:00:10;;;;;;;6.43;1.90;;;10.10;99.90;;;;;;5044192;28;20056;-64
2023/10/29 01:02:42;;;;;;;2.50;1.00;;;10.00;99.90;;;;;;5029674;28;20354;-64
2023/10/29 01:05:14;;;;;;;2.53;0.85;;;10.00;99.90;;;;;;5031057;28;20045;-64
2023/10/29 01:07:46;;;;;;;2.30;1.27;;;10.00;99.90;;;;;;5029433;28;20048;-64
2023/10/29 01:10:18;;;;;;;2.95;1.08;;;9.90;99.90;;;;;;5027931;28;20033;-64
2023/10/29 01:12:50;;;;;;;4.07;1.15;;;9.90;99.90;;;;;;5025641;28;20038;-64
2023/10/29 01:15:22;;;;;;;3.72;1.20;;;9.90;99.90;;;;;;5024034;28;20041;-64
2023/10/29 01:17:55;;;;;;;3.27;1.30;;;9.90;99.90;;;;;;5033050;28;20046;-64
2023/10/29 01:20:27;;;;;;;2.28;0.90;;;9.90;99.90;;;;;;5026895;28;20053;-64
2023/10/29 01:22:59;;;;;;;2.65;1.10;;;9.80;99.90;;;;;;5020954;28;20052;-64
2023/10/29 01:25:30;;;;;;;2.55;0.85;;;9.80;99.90;;;;;;5018044;28;20124;-64
2023/10/29 01:28:03;;;;;;;7.20;1.33;;;9.70;99.90;;;;;;5025575;28;20095;-64
2023/10/29 01:30:30;;;;;;;4.10;1.20;;;9.60;99.90;;;;;;5027169;28;20129;-64
2023/10/29 01:33:03;;;;;;;1.50;0.90;;;9.60;99.90;;;;;;5028612;28;20140;-64
2023/10/29 01:35:34;;;;;;;3.42;1.13;;;9.50;99.90;;;;;;5027686;28;20287;-64
2023/10/29 01:38:06;;;;;;;3.08;1.10;;;9.50;99.90;;;;;;5026484;28;20196;-64
2023/10/29 01:40:38;;;;;;;3.78;1.33;;;9.40;99.90;;;;;;5027987;28;20425;-64
2023/10/29 01:43:10;;;;;;;3.05;1.50;;;9.20;99.90;;;;;;5026144;28;20046;-64
2023/10/29 01:45:42;;;;;;;3.58;1.70;;;9.20;99.90;;;;;;5028683;28;20046;-64
2023/10/29 01:48:13;;;;;;;3.72;1.50;;;9.20;99.90;;;;;;5028652;28;20041;-64
2023/10/29 01:50:40;;;;;;;2.53;1.38;;;9.20;99.90;;;;;;5029037;28;20406;-64
2023/10/29 01:53:12;;;;;;;2.38;0.93;;;9.20;99.90;;;;;;5019676;28;20053;-64
2023/10/29 01:55:44;;;;;;;3.42;1.20;;;9.20;99.90;;;;;;5028083;28;20084;-64
2023/10/29 01:58:16;;;;;;;2.70;1.00;;;9.10;99.90;;;;;;5039987;28;20079;-64
2023/10/29 02:00:49;;;;;;;5.65;1.00;;;9.10;99.90;;;;;;5018373;28;20052;-64
2023/10/29 02:03:16;;;;;;;1.80;0.90;;;9.10;99.90;;;;;;5027006;28;20041;-64
2023/10/29 02:05:48;;;;;;;1.63;1.00;;;9.10;99.90;;;;;;5028285;28;20049;-64
2023/10/29 02:08:19;;;;;;;4.72;1.02;;;9.00;99.90;;;;;;5028864;28;20525;-64
2023/10/29 02:10:51;;;;;;;2.15;1.45;;;9.10;99.90;;;;;;5027193;28;20041;-64
2023/10/29 02:13:23;;;;;;;2.33;1.10;;;9.00;99.90;;;;;;5025984;28;20033;-64
2023/10/29 02:15:50;;;;;;;2.72;1.50;;;9.10;99.90;;;;;;5023937;28;20272;-64
2023/10/29 02:18:22;;;;;;;2.72;1.30;;;9.10;99.90;;;;;;5029247;28;20054;-64
2023/10/29 02:20:53;;;;;;;3.20;1.02;;;9.10;99.90;;;;;;5028109;28;20042;-64
2023/10/29 02:23:25;;;;;;;3.35;1.20;;;9.00;99.90;;;;;;5018692;28;20050;-64
2023/10/29 02:25:57;;;;;;;1.60;0.93;;;9.00;99.90;;;;;;5028425;28;20078;-64
2023/10/29 02:28:29;;;;;;;3.95;1.27;;;8.90;99.90;;;;;;4993095;28;20442;-64
2023/10/29 02:30:56;;;;;;;2.80;1.65;;;8.90;99.90;;;;;;5022893;28;20136;-64
2023/10/29 02:33:28;;;;;;;1.65;0.95;;;8.80;99.90;;;;;;5026116;28;20498;-64
2023/10/29 02:35:59;;;;;;;2.75;1.02;;;8.80;99.90;;;;;;5014518;28;20042;-64
2023/10/29 02:38:32;;;;;;;4.20;1.35;;;8.80;99.90;;;;;;5011064;28;20052;-64
2023/10/29 02:41:05;;;;;;;4.68;1.08;;;8.80;99.90;;;;;;5009911;28;20050;-64
2023/10/29 02:43:40;;;;;;;4.30;1.30;;;8.80;99.90;;;;;;5026396;28;20050;-64
2023/10/29 02:46:12;;;;;;;2.35;1.10;;;8.70;99.90;;;;;;5026092;28;20511;-64
2023/10/29 02:48:45;;;;;;;2.47;0.95;;;8.70;99.90;;;;;;5027074;28;20057;-64
2023/10/29 02:51:17;;;;;;;3.65;1.35;;;8.60;99.90;;;;;;5018480;28;20092;-64
2023/10/29 02:53:48;;;;;;;2.03;1.23;;;8.60;99.90;;;;;;5027492;28;20054;-64
2023/10/29 02:56:20;;;;;;;4.38;1.30;;;8.60;99.90;;;;;;5018688;28;20100;-64
2023/10/29 02:58:54;;;;;;;2.78;1.40;;;8.50;99.90;;;;;;5028880;28;20395;-64
2023/10/29 03:01:25;;;;;;;2.53;1.63;;;8.50;99.90;;;;;;5026576;28;20136;-64
2023/10/29 03:03:57;;;;;;;2.38;1.35;;;8.50;99.90;;;;;;5011157;28;20041;-64
2023/10/29 03:06:31;;;;;;;7.15;1.63;;;8.40;99.90;;;;;;5022874;28;20475;-64
2023/10/29 03:09:03;;;;;;;3.83;1.98;;;8.40;99.90;;;;;;5012686;28;20285;-64
2023/10/29 03:11:34;;;;;;;2.88;1.83;;;8.40;99.90;;;;;;5027388;28;20052;-64
2023/10/29 03:14:02;;;;;;;1.30;1.13;;;8.30;99.90;;;;;;5026280;28;20045;-64
2023/10/29 03:16:33;;;;;;;2.30;1.33;;;8.30;99.90;;;;;;5026779;28;20430;-64
2023/10/29 03:19:05;;;;;;;2.88;1.05;;;8.30;99.90;;;;;;5029106;28;20505;-64
2023/10/29 03:21:37;;;;;;;5.05;1.20;;;8.20;99.90;;;;;;5020238;28;20455;-64
2023/10/29 03:24:09;;;;;;;3.58;1.30;;;8.20;99.90;;;;;;5025130;28;20069;-64
2023/10/29 03:26:41;;;;;;;2.20;1.20;;;8.20;99.90;;;;;;5021695;28;20136;-64
2023/10/29 03:29:13;;;;;;;1.80;1.00;;;8.20;99.90;;;;;;5021057;28;20141;-64
2023/10/29 03:31:40;;;;;;;2.05;1.00;;;8.10;99.90;;;;;;5026970;28;20045;-64
2023/10/29 03:34:12;;;;;;;7.47;1.77;;;8.20;99.90;;;;;;5027686;28;20041;-64
2023/10/29 03:36:44;;;;;;;3.28;1.20;;;8.10;99.90;;;;;;5015266;28;20835;-64
2023/10/29 03:39:16;;;;;;;2.90;1.20;;;8.10;99.90;;;;;;5012536;28;20046;-64
2023/10/29 03:41:47;;;;;;;2.20;1.30;;;8.00;99.90;;;;;;5013248;28;20520;-64
2023/10/29 03:44:19;;;;;;;2.30;1.30;;;7.90;99.90;;;;;;5009980;28;20050;-64
2023/10/29 03:46:52;;;;;;;3.55;1.23;;;7.90;99.90;;;;;;5030125;28;20064;-64
2023/10/29 03:49:19;;;;;;;3.08;1.40;;;7.90;99.90;;;;;;5030543;28;20152;-64
2023/10/29 03:51:51;;;;;;;2.30;1.35;;;7.80;99.90;;;;;;5040492;28;20038;-64
2023/10/29 03:54:24;;;;;;;1.98;1.60;;;7.90;99.90;;;;;;5034795;28;20092;-64
2023/10/29 03:56:56;;;;;;;4.55;2.10;;;7.80;99.90;;;;;;5022882;28;20529;-64
2023/10/29 03:59:28;;;;;;;2.60;1.00;;;7.80;99.90;;;;;;5019860;28;20050;-64
2023/10/29 04:02:00;;;;;;;2.85;1.48;;;7.70;99.90;;;;;;5019659;28;20524;-64
2023/10/29 04:04:38;;;;;;;2.35;1.75;;;7.70;99.90;;;;;;5039074;28;20046;-64
2023/10/29 04:07:10;;;;;;;3.65;1.50;;;7.70;99.90;;;;;;5029217;28;20084;-64
2023/10/29 04:09:42;;;;;;;3.05;1.58;;;7.60;99.90;;;;;;5028293;28;20135;-64
2023/10/29 04:12:14;;;;;;;3.53;1.15;;;7.60;99.90;;;;;;5014635;28;20038;-64
2023/10/29 04:14:46;;;;;;;4.00;1.98;;;7.60;99.90;;;;;;5028999;28;20059;-64
2023/10/29 04:17:17;;;;;;;4.13;1.67;;;7.60;99.90;;;;;;5028818;28;20049;-64
2023/10/29 04:19:49;;;;;;;5.82;2.05;;;7.60;99.90;;;;;;5015184;28;20429;-65
2023/10/29 04:22:22;;;;;;;4.32;2.05;;;7.50;99.90;;;;;;5020300;28;20049;-64
2023/10/29 04:24:54;;;;;;;3.40;2.45;;;7.50;99.90;;;;;;5021409;28;20053;-64
2023/10/29 04:27:26;;;;;;;3.75;2.50;;;7.50;99.90;;;;;;5022947;28;20561;-64
2023/10/29 04:29:58;;;;;;;3.63;2.40;;;7.40;99.90;;;;;;5027180;28;20119;-64
2023/10/29 04:32:25;;;;;;;8.90;4.57;;;7.30;99.90;;;;;;5026562;28;20033;-64
2023/10/29 04:34:56;;;;;;;12.80;7.47;;;7.30;99.90;;;;;;5028643;28;20045;-64
2023/10/29 04:37:23;;;;;;;6.30;3.20;;;7.30;99.90;;;;;;5029816;28;20056;-64
2023/10/29 04:39:55;;;;;;;3.55;1.83;;;7.30;99.90;;;;;;5023618;28;20593;-64
2023/10/29 04:42:27;;;;;;;3.22;1.60;;;7.20;99.90;;;;;;5021469;28;20034;-64
2023/10/29 04:44:58;;;;;;;2.65;1.20;;;7.10;99.90;;;;;;5014803;28;20058;-64
2023/10/29 04:47:30;;;;;;;2.85;1.42;;;7.20;99.90;;;;;;5016186;28;20065;-64
2023/10/29 04:50:02;;;;;;;7.20;2.30;;;7.20;99.90;;;;;;5014920;28;20040;-64
2023/10/29 04:52:34;;;;;;;5.40;2.10;;;7.20;99.90;;;;;;5019531;28;20410;-64
2023/10/29 04:55:01;;;;;;;2.33;1.25;;;7.20;99.90;;;;;;5020899;28;20203;-64
2023/10/29 04:57:33;;;;;;;2.88;1.92;;;7.30;99.90;;;;;;5026299;28;20113;-64
2023/10/29 05:00:05;;;;;;;3.13;1.95;;;7.30;99.90;;;;;;5029172;28;20552;-64
2023/10/29 05:02:37;;;;;;;3.75;2.50;;;7.30;99.90;;;;;;5028782;28;20041;-64
2023/10/29 05:05:10;;;;;;;3.33;2.60;;;7.30;99.90;;;;;;5030077;28;20053;-64
2023/10/29 05:07:44;;;;;;;3.45;2.45;;;7.20;99.90;;;;;;5028252;28;20140;-64
2023/10/29 05:10:16;;;;;;;3.28;2.33;;;7.20;99.90;;;;;;5027302;28;20048;-64
2023/10/29 05:12:48;;;;;;;4.18;3.78;;;7.20;99.90;;;;;;5018779;28;20040;-64
2023/10/29 05:15:20;;;;;;;3.30;2.85;;;7.20;99.90;;;;;;5031361;28;20429;-64
2023/10/29 05:17:52;;;;;;;2.65;2.20;;;7.20;99.90;;;;;;5028549;28;20133;-64
2023/10/29 05:20:19;;;;;;;2.90;1.95;;;7.20;99.90;;;;;;5030048;28;20056;-64
2023/10/29 05:22:50;;;;;;;2.95;2.13;;;7.20;99.90;;;;;;5024912;28;20046;-64
2023/10/29 05:25:22;;;;;;;3.97;1.83;;;7.20;99.90;;;;;;5028736;28;20051;-64
2023/10/29 05:27:55;;;;;;;5.55;2.05;;;7.10;99.90;;;;;;5020195;28;20042;-64
2023/10/29 05:30:27;;;;;;;2.30;1.52;;;7.00;99.90;;;;;;5026945;28;20037;-64
2023/10/29 05:32:59;;;;;;;3.25;1.33;;;6.90;99.90;;;;;;5017295;28;20041;-63
2023/10/29 05:35:31;;;;;;;2.00;1.35;;;6.80;99.90;;;;;;5016555;28;20497;-64
2023/10/29 05:38:03;;;;;;;3.97;2.40;;;6.70;99.90;;;;;;5016804;28;20050;-64
2023/10/29 05:40:35;;;;;;;1.75;1.30;;;6.70;99.90;;;;;;5012539;28;20129;-64
2023/10/29 05:43:07;;;;;;;2.58;1.70;;;6.60;99.90;;;;;;5026129;28;20049;-64
2023/10/29 05:45:39;;;;;;;2.95;2.00;;;6.60;99.90;;;;;;5013906;28;20097;-64
2023/10/29 05:48:05;;;;;;;2.95;2.00;;;6.50;99.90;;;;;;4999901;28;20375;-64
2023/10/29 05:50:38;;;;;;;2.70;1.77;;;6.40;99.90;;;;;;5015767;28;20046;-64
2023/10/29 05:53:10;;;;;;;3.72;2.00;;;6.30;99.90;;;;;;5020825;28;20046;-64
2023/10/29 05:55:42;;;;;;;3.58;1.70;;;6.30;99.90;;;;;;5019990;28;20038;-64
2023/10/29 05:58:14;;;;;;;1.98;1.60;;;6.40;99.90;;;;;;5027510;28;20464;-64
2023/10/29 06:00:46;;;;;;;2.60;1.90;;;6.40;99.90;;;;;;5021959;28;20037;-64
2023/10/29 06:03:17;;;;;;;3.95;1.80;;;6.40;99.90;;;;;;5021819;28;20049;-64
2023/10/29 06:05:44;;;;;;;3.08;1.80;;;6.40;99.90;;;;;;5020252;28;20041;-64
2023/10/29 06:08:16;;;;;;;5.97;2.53;;;6.50;99.90;;;;;;5019470;28;20513;-64
2023/10/29 06:10:50;;;;;;;2.83;2.10;;;6.50;99.90;;;;;;5014825;28;20038;-64
2023/10/29 06:13:21;;;;;;;7.80;1.83;;;6.50;99.90;;;;;;5013127;28;20038;-64
2023/10/29 06:15:53;;;;;;;4.55;2.13;;;6.50;99.90;;;;;;5024690;28;20400;-64
2023/10/29 06:18:25;;;;;;;2.28;1.50;;;6.60;99.90;;;;;;5010011;28;20184;-64
2023/10/29 06:20:57;;;;;;;2.05;1.25;;;6.60;99.90;;;;;;5019690;28;20098;-64
2023/10/29 06:23:24;;;;;;;2.50;1.58;;;6.60;99.90;;;;;;5021723;28;20531;-64
2023/10/29 06:25:50;;;;;;;3.85;1.80;;;6.60;99.90;;;;;;5021849;28;20461;-64
2023/10/29 06:28:22;;;;;;;4.15;1.98;;;6.60;99.90;;;;;;5005834;28;20048;-64
2023/10/29 06:30:54;;;;;;;4.72;2.28;;;6.60;99.90;;;;;;5015965;28;20038;-64
2023/10/29 06:33:21;;;;;;;3.97;2.28;;;6.60;99.90;;;;;;5021474;28;20033;-64
2023/10/29 06:35:57;;;;;;;2.85;1.50;;;6.60;99.90;;;;;;5016108;28;20183;-64
2023/10/29 06:38:29;;;;;;;1.90;1.08;;;6.60;99.90;;;;;;5015718;28;20069;-64
2023/10/29 06:40:56;;;;;;;2.78;1.13;;;6.60;99.90;;;;;;5013115;28;20523;-64
2023/10/29 06:43:27;;;;;;;1.90;1.20;;;6.60;99.90;;;;;;5018617;28;20048;-64
2023/10/29 06:46:00;;;;;;;2.15;1.10;;;6.70;99.90;;;;;;5024095;28;20041;-64
2023/10/29 06:48:31;;;;;;;7.47;1.52;;;6.70;99.90;;;;;;5020699;28;20034;-64
2023/10/29 06:51:04;;;;;;;5.50;3.22;;;6.70;99.90;;;;;;5011108;28;20038;-64
2023/10/29 06:53:39;;;;;;;9.70;6.38;;;6.70;99.90;;;;;;5023811;28;20053;-64
2023/10/29 06:56:06;;;;;;;7.97;5.13;;;6.70;99.90;;;;;;5020236;28;20038;-64
2023/10/29 06:58:41;;;;;;;15.52;5.93;;;6.70;99.90;;;;;;5018845;28;20046;-64
2023/10/29 07:01:13;;;;;;;5.90;2.60;;;6.70;99.90;;;;;;5010356;28;20053;-64
2023/10/29 07:03:46;;;;;;;6.25;4.32;;;6.80;99.90;;;;;;5017766;28;20506;-64
2023/10/29 07:06:17;;;;;;;6.47;3.10;;;6.80;99.90;;;;;;5017165;28;20421;-64
2023/10/29 07:08:45;;;;;;;1.75;1.30;;;6.80;99.90;;;;;;5017423;28;20050;-64
2023/10/29 07:11:18;;;;;;;1.55;1.02;;;6.80;99.90;;;;;;5021574;28;20042;-64
2023/10/29 07:13:52;;;;;;;2.13;0.90;;;6.90;99.90;;;;;;5020891;28;20129;-64
2023/10/29 07:16:24;;;;;;;;;;;6.90;99.90;;;;;;5011929;28;20078;-64
2023/10/29 07:18:55;;;;;;;3.38;1.17;;;7.00;99.90;;;;;;5011908;28;19929;-64
2023/10/29 07:21:27;;;;;;;2.28;1.30;;;7.10;99.90;;;;;;5025989;28;20042;-64
2023/10/29 07:23:54;;;;;;;2.05;1.25;;;7.20;99.90;;;;;;5024217;28;20057;-64
2023/10/29 07:26:26;;;;;;;1.80;1.00;;;7.20;99.90;;;;;;5024955;28;20049;-64
2023/10/29 07:28:53;;;;;;;6.63;4.22;;;7.30;99.90;;;;;;5018073;28;20044;-64
2023/10/29 07:31:25;;;;;;;11.85;7.68;;;7.40;99.90;;;;;;5018263;28;20038;-64
2023/10/29 07:33:57;;;;;;;12.90;8.50;;;7.40;99.90;;;;;;5025837;28;20060;-64
2023/10/29 07:36:29;;;;;;;11.30;7.28;;;7.40;99.90;;;;;;5021989;28;20041;-64
2023/10/29 07:39:01;;;;;;;13.23;6.65;;;7.40;99.90;;;;;;5014106;28;20046;-64
2023/10/29 07:41:32;;;;;;;8.75;6.20;;;7.40;99.90;;;;;;5014291;28;20065;-64
2023/10/29 07:44:04;;;;;;;10.15;6.80;;;7.50;99.90;;;;;;5010677;28;20060;-64
2023/10/29 07:46:36;;;;;;;11.65;6.20;;;7.50;99.90;;;;;;5028117;28;20048;-64
2023/10/29 07:49:07;;;;;;;9.20;5.55;;;7.50;99.90;;;;;;5014502;28;20044;-64
2023/10/29 07:51:39;;;;;;;6.25;3.15;;;7.60;99.90;;;;;;5026240;28;20050;-64
2023/10/29 07:54:11;;;;;;;4.10;2.10;;;7.60;99.90;;;;;;5014107;28;20386;-64
2023/10/29 07:56:42;;;;;;;2.88;1.90;;;7.70;99.90;;;;;;5031960;28;20056;-64
2023/10/29 07:59:14;;;;;;;6.45;2.67;;;7.80;99.90;;;;;;5014880;28;20064;-65
2023/10/29 08:01:43;;;;;;;8.10;3.70;;;8.00;99.90;;;;;;5019495;28;20449;-64
2023/10/29 08:04:10;;;;;;;7.25;3.53;;;8.10;99.90;;;;;;5021394;28;20052;-64
2023/10/29 08:06:43;;;;;;;6.85;3.70;;;8.20;99.90;;;;;;5018257;28;20037;-64
2023/10/29 08:09:15;;;;;;;6.63;3.20;;;8.30;99.90;;;;;;5026706;28;20069;-64
2023/10/29 08:11:41;;;;;;;4.30;3.03;;;8.30;99.90;;;;;;4994243;28;20053;-64
2023/10/29 08:14:13;;;;;;;7.13;4.15;;;8.30;99.90;;;;;;5011825;28;20039;-64
2023/10/29 08:16:45;;;;;;;5.45;4.55;;;8.30;99.90;;;;;;5017316;28;20538;-65
2023/10/29 08:19:17;;;;;;;7.22;3.85;;;8.40;99.90;;;;;;5013577;28;20041;-64
2023/10/29 08:21:48;;;;;;;2.25;1.63;;;8.40;99.90;;;;;;5012125;28;20057;-63
2023/10/29 08:24:20;;;;;;;1.80;0.90;;;8.70;99.90;;;;;;5014743;28;20057;-64
2023/10/29 08:26:52;;;;;;;2.83;1.10;;;9.00;99.90;;;;;;5018256;28;20046;-63
2023/10/29 08:29:24;;;;;;;3.15;1.15;;;9.40;99.90;;;;;;5026464;28;20041;-64
2023/10/29 08:31:50;;;;;;;2.85;2.42;;;9.70;99.90;;;;;;5025760;28;20080;-64
2023/10/29 08:34:22;;;;;;;3.95;2.60;;;9.80;99.90;;;;;;5029926;28;20045;-63
2023/10/29 08:36:55;;;;;;;5.05;2.45;;;9.80;99.90;;;;;;5019340;28;20513;-63
2023/10/29 08:39:27;;;;;;;2.72;2.10;;;9.80;99.90;;;;;;5019808;28;20533;-63
2023/10/29 08:41:54;;;;;;;3.35;2.67;;;9.80;99.90;;;;;;5025925;28;20049;-64
2023/10/29 08:44:27;;;;;;;3.47;2.33;;;9.80;99.90;;;;;;5013965;28;20048;-65
2023/10/29 08:46:54;;;;;;;2.90;1.90;;;9.80;99.90;;;;;;5026290;28;20037;-64
2023/10/29 08:49:26;;;;;;;2.35;1.85;;;9.90;99.90;;;;;;5013515;28;20033;-63
2023/10/29 08:51:58;;;;;;;3.85;2.60;;;10.00;99.90;;;;;;5017627;28;20131;-64
2023/10/29 08:54:30;;;;;;;3.88;3.03;;;10.00;99.90;;;;;;5014279;28;20136;-64
2023/10/29 08:57:01;;;;;;;4.35;2.88;;;10.10;99.90;;;;;;5017076;28;20034;-63
2023/10/29 08:59:34;;;;;;;6.55;3.75;;;10.30;99.90;;;;;;5008285;28;20049;-63
2023/10/29 09:02:07;;;;;;;4.57;3.30;;;10.40;99.90;;;;;;5022443;28;20388;-64
2023/10/29 09:04:39;;;;;;;3.92;2.50;;;10.50;99.90;;;;;;5021847;28;20429;-63
2023/10/29 09:07:11;;;;;;;4.18;2.20;;;10.60;99.90;;;;;;5026507;28;20383;-64
2023/10/29 09:09:43;;;;;;;2.92;2.22;;;10.70;99.90;;;;;;5023244;28;20563;-64
2023/10/29 09:12:10;;;;;;;4.30;2.10;;;10.80;99.90;;;;;;5025171;28;20039;-64
2023/10/29 09:14:41;;;;;;;4.32;2.65;;;10.90;99.90;;;;;;5027270;28;20054;-64
2023/10/29 09:17:10;;;;;;;3.20;2.40;;;11.00;99.90;;;;;;5014492;28;20050;-64
2023/10/29 09:19:41;;;;;;;2.42;2.22;;;11.10;99.90;;;;;;5013706;28;20050;-64
2023/10/29 09:22:13;;;;;;;4.47;2.75;;;11.20;99.90;;;;;;5012962;28;20109;-63
2023/10/29 09:24:40;;;;;;;3.22;2.28;;;11.30;99.90;;;;;;5018824;28;20050;-64
2023/10/29 09:27:12;;;;;;;4.18;2.35;;;11.30;99.90;;;;;;5015923;28;20042;-64
2023/10/29 09:29:44;;;;;;;3.90;2.22;;;11.50;99.90;;;;;;5025653;28;20053;-64
2023/10/29 09:32:16;;;;;;;3.45;1.95;;;11.50;99.90;;;;;;5023358;28;20038;-64
2023/10/29 09:34:48;;;;;;;4.05;2.30;;;11.60;99.90;;;;;;5025792;28;20045;-64
2023/10/29 09:37:21;;;;;;;3.13;2.20;;;11.70;99.90;;;;;;5005052;28;20058;-64
2023/10/29 09:39:53;;;;;;;4.55;2.38;;;11.80;99.90;;;;;;5020316;28;20052;-64
2023/10/29 09:42:32;;;;;;;6.72;2.30;;;11.90;99.90;;;;;;5024008;28;20410;-64
2023/10/29 09:45:06;;;;;;;3.13;2.60;;;11.90;99.90;;;;;;5015004;28;20409;-64
2023/10/29 09:47:38;;;;;;;4.43;2.45;;;12.10;99.90;;;;;;5014970;28;20522;-64
2023/10/29 09:50:11;;;;;;;4.35;2.70;;;12.10;99.90;;;;;;5020704;28;20044;-64
2023/10/29 09:52:44;;;;;;;3.25;2.15;;;12.20;99.90;;;;;;5012991;28;20048;-64
2023/10/29 09:55:18;;;;;;;;;;;12.30;99.90;;;;;;5027492;28;20038;-64
2023/10/29 09:57:44;;;;;;;4.18;2.50;;;12.30;99.90;;;;;;5013990;28;19921;-64
2023/10/29 10:00:17;;;;;;;3.47;2.50;;;12.40;99.90;;;;;;5019607;28;20088;-64
2023/10/29 10:02:50;;;;;;;2.53;2.30;;;12.50;99.90;;;;;;5018506;28;20120;-64
2023/10/29 10:05:23;;;;;;;3.78;2.67;;;12.50;99.90;;;;;;5027393;28;20601;-64
2023/10/29 10:07:56;;;;;;;3.88;2.20;;;12.60;99.90;;;;;;5020027;28;20383;-64
2023/10/29 10:10:40;;;;;;;4.22;2.95;;;12.70;99.90;;;;;;5020164;28;20069;-64
2023/10/29 10:13:12;;;;;;;3.47;2.88;;;12.90;99.90;;;;;;5014181;28;20045;-64
2023/10/29 10:15:39;;;;;;;4.88;2.70;;;13.00;99.90;;;;;;5016421;28;20116;-64
2023/10/29 10:18:11;;;;;;;3.17;2.22;;;13.10;99.90;;;;;;5014893;28;20038;-64
2023/10/29 10:20:38;;;;;;;3.85;2.00;;;13.30;99.90;;;;;;5018260;28;20486;-64
2023/10/29 10:23:11;;;;;;;2.97;2.10;;;13.40;99.90;;;;;;4995173;28;20056;-64
2023/10/29 10:25:43;;;;;;;2.47;2.10;;;13.50;99.90;;;;;;5012717;28;20061;-64
2023/10/29 10:28:14;;;;;;;3.05;1.67;;;13.60;99.90;;;;;;5014377;28;20306;-63
2023/10/29 10:30:46;;;;;;;4.32;1.85;;;13.80;99.90;;;;;;5016204;28;20050;-64
2023/10/29 10:33:22;;;;;;;4.50;1.90;;;13.90;99.90;;;;;;5015077;28;20129;-64
2023/10/29 10:35:56;;;;;;;2.08;1.60;;;14.10;99.90;;;;;;5017858;28;20049;-64
2023/10/29 10:38:29;;;;;;;3.20;2.08;;;14.20;99.90;;;;;;5018647;28;20045;-64
2023/10/29 10:41:01;;;;;;;2.17;1.58;;;14.30;99.90;;;;;;5018499;28;20034;-64
2023/10/29 10:43:28;;;;;;;2.10;1.38;;;14.30;99.90;;;;;;5018267;28;20163;-64
2023/10/29 10:46:04;;;;;;;2.28;1.60;;;14.30;99.90;;;;;;5014697;28;20049;-64
2023/10/29 10:48:37;;;;;;;1.85;1.38;;;14.40;99.90;;;;;;5015828;28;20494;-64
2023/10/29 10:51:06;;;;;;;2.85;1.40;;;14.40;99.90;;;;;;5004085;28;20465;-63
2023/10/29 10:53:40;;;;;;;3.03;1.48;;;14.40;99.90;;;;;;5003679;28;20130;-64
2023/10/29 10:56:12;;;;;;;2.53;1.42;;;14.40;99.90;;;;;;5000677;28;20049;-64
2023/10/29 10:58:40;;;;;;;1.90;1.40;;;14.40;99.90;;;;;;5004865;28;20048;-64
2023/10/29 11:01:09;;;;;;;2.03;1.50;;;14.40;99.90;;;;;;5006377;28;20050;-64
2023/10/29 11:03:42;;;;;;;2.53;1.40;;;14.40;99.90;;;;;;5010774;28;20041;-64
2023/10/29 11:06:15;;;;;;;3.58;1.77;;;14.50;99.90;;;;;;5011120;28;20046;-64
2023/10/29 11:08:47;;;;;;;3.37;1.37;;;14.50;99.90;;;;;;5009912;28;20053;-64
2023/10/29 11:11:20;;;;;;;3.15;1.35;;;14.50;99.90;;;;;;5013464;28;20042;-63
2023/10/29 11:14:08;;;;;;;2.85;1.52;;;14.60;99.90;;;;;;4997533;28;20065;-64
2023/10/29 11:16:49;;;;;;;2.92;1.92;;;14.60;99.90;;;;;;5009859;28;20034;-63
2023/10/29 11:19:39;;;;;;;2.83;2.00;;;14.70;99.90;;;;;;5012188;28;20523;-64
2023/10/29 11:22:17;;;;;;;3.25;1.77;;;14.80;99.90;;;;;;5009951;28;20038;-64
2023/10/29 11:25:05;;;;;;;3.30;1.90;;;14.80;99.90;;;;;;5014240;28;20041;-64
2023/10/29 11:27:47;;;;;;;2.90;1.52;;;14.90;99.90;;;;;;5019724;28;20120;-64
2023/10/29 11:30:21;;;;;;;2.42;1.30;;;15.00;99.90;;;;;;5015804;28;20528;-64
2023/10/29 11:33:12;;;;;;;2.13;1.27;;;15.00;99.90;;;;;;5012035;28;20048;-64
2023/10/29 11:35:44;;;;;;;2.45;0.93;;;15.10;99.90;;;;;;5013841;28;20395;-64
2023/10/29 11:38:33;;;;;;;1.40;0.90;;;15.10;99.90;;;;;;5008752;28;20056;-64
2023/10/29 11:41:32;;;;;;;1.67;1.10;;;15.20;99.90;;;;;;5016633;28;20049;-64
2023/10/29 11:44:23;;;;;;;1.33;0.90;;;15.30;99.90;;;;;;5036093;28;20409;-64
2023/10/29 11:46:59;;;;;;;1.33;0.85;;;15.40;99.90;;;;;;5000954;28;20046;-64
2023/10/29 11:49:57;;;;;;;1.85;0.90;;;15.50;99.90;;;;;;5026470;28;20060;-64
2023/10/29 11:52:40;;;;;;;1.33;0.85;;;15.60;99.90;;;;;;5016646;28;20029;-64
2023/10/29 11:55:12;;;;;;;2.60;1.02;;;15.60;99.90;;;;;;5011317;28;20537;-64
2023/10/29 11:57:46;;;;;;;3.03;1.80;;;15.60;99.90;;;;;;5011153;28;20063;-64
2023/10/29 12:00:17;;;;;;;1.55;1.05;;;15.60;99.90;;;;;;5015450;28;20056;-63
2023/10/29 12:02:50;;;;;;;1.38;0.73;;;15.60;99.90;;;;;;5015297;28;20039;-64
2023/10/29 12:05:21;;;;;;;2.70;0.80;;;15.70;99.90;;;;;;5018080;28;20034;-64
2023/10/29 12:08:01;;;;;;;1.58;0.90;;;15.70;99.90;;;;;;5014181;28;20022;-64
2023/10/29 12:10:51;;;;;;;5.88;1.45;;;15.80;99.90;;;;;;5022249;28;20042;-64
2023/10/29 12:13:23;;;;;;;1.60;1.00;;;15.90;99.90;;;;;;5027585;28;20050;-64
2023/10/29 12:16:00;;;;;;;1.30;0.90;;;16.00;99.90;;;;;;5019091;28;20449;-64
2023/10/29 12:18:32;;;;;;;1.10;0.70;;;16.20;99.90;;;;;;5019039;28;20042;-64
2023/10/29 12:21:09;;;;;;;1.63;0.60;;;16.30;99.90;;;;;;4998684;28;20418;-64
2023/10/29 12:23:37;;;;;;;1.02;0.50;;;16.40;99.90;;;;;;5018255;28;20080;-64
2023/10/29 12:26:10;;;;;;;1.67;0.77;;;16.50;99.90;;;;;;5029441;28;20423;-64
2023/10/29 12:28:42;;;;;;;1.60;0.90;;;16.60;99.90;;;;;;5012690;28;20038;-64
2023/10/29 12:31:25;;;;;;;2.10;0.80;;;16.80;99.90;;;;;;5014805;28;20570;-64
2023/10/29 12:33:59;;;;;;;1.52;0.70;;;16.90;99.90;;;;;;5015880;28;20034;-64
2023/10/29 12:36:32;;;;;;;1.10;0.75;;;16.90;99.90;;;;;;5017212;28;20038;-64
2023/10/29 12:39:04;;;;;;;2.20;0.60;;;16.80;99.90;;;;;;5017779;28;20078;-64
2023/10/29 12:41:31;;;;;;;1.88;0.70;;;16.60;99.90;;;;;;5018655;28;20567;-64
2023/10/29 12:43:59;;;;;;;1.17;0.65;;;16.60;99.90;;;;;;5019534;28;20557;-64
2023/10/29 12:46:31;;;;;;;1.88;0.75;;;16.50;99.90;;;;;;5014782;28;20137;-64
2023/10/29 12:49:09;;;;;;;2.75;0.70;;;16.50;99.90;;;;;;5018070;28;20046;-64
2023/10/29 12:51:41;;;;;;;1.75;0.98;;;16.40;99.90;;;;;;5009857;28;20042;-64
2023/10/29 12:54:19;;;;;;;1.30;0.70;;;16.40;99.90;;;;;;5015130;28;20048;-63
2023/10/29 12:57:02;;;;;;;2.30;1.02;;;16.40;99.90;;;;;;5007501;28;20042;-64
2023/10/29 12:59:31;;;;;;;5.75;1.08;;;16.50;99.90;;;;;;5006193;28;20038;-64
2023/10/29 13:02:05;;;;;;;2.83;0.80;;;16.50;99.90;;;;;;5026509;28;20037;-63
2023/10/29 13:04:37;;;;;;;2.58;0.90;;;16.60;99.90;;;;;;5004181;28;20063;-64
2023/10/29 13:07:11;;;;;;;2.08;0.90;;;16.70;99.90;;;;;;5016384;28;20038;-64
2023/10/29 13:09:44;;;;;;;1.25;0.70;;;16.80;99.90;;;;;;5023861;28;20128;-64
2023/10/29 13:12:11;;;;;;;2.75;0.90;;;17.00;99.90;;;;;;5019792;28;20038;-64
2023/10/29 13:14:45;;;;;;;4.05;1.58;;;17.00;99.90;;;;;;5027037;28;20038;-63
2023/10/29 13:17:17;;;;;;;2.53;1.00;;;17.10;99.90;;;;;;5022950;28;20060;-64
2023/10/29 13:19:51;;;;;;;1.13;0.77;;;17.10;99.90;;;;;;5017096;28;20049;-64